Time;durP1;ratioP1;P1;durP2;ratioP2;P2;SDS_P1;SDS_P2;PMS_P1;PMS_P2;Temp;Humidity;BMP_temperature;BMP_pressure;BME280_temperature;BME280_humidity;BME280_pressure;Samples;Min_cycle;Max_cycle;Signal;HPM_P1;HPM_P2
2023/08/26 00:02:22;;;;;;;5.23;2.33;;;19.60;99.90;;;;;;5047941;28;20923;-53
2023/08/26 00:04:48;;;;;;;4.77;2.10;;;19.60;99.90;;;;;;5045691;28;20462;-52
2023/08/26 00:07:16;;;;;;;4.03;2.20;;;19.60;99.90;;;;;;5049230;28;20493;-53
2023/08/26 00:09:43;;;;;;;4.93;2.70;;;19.60;99.90;;;;;;5042788;28;20563;-53
2023/08/26 00:12:09;;;;;;;2.20;2.00;;;19.60;99.90;;;;;;5034891;28;20494;-53
2023/08/26 00:14:36;;;;;;;1.87;1.60;;;19.60;99.90;;;;;;5030804;28;20498;-52
2023/08/26 00:17:04;;;;;;;6.90;2.63;;;19.60;99.90;;;;;;5039181;28;20458;-52
2023/08/26 00:19:31;;;;;;;2.70;2.10;;;19.70;99.90;;;;;;5039897;28;20447;-52
2023/08/26 00:21:57;;;;;;;3.63;2.27;;;19.60;99.90;;;;;;5045785;28;20507;-52
2023/08/26 00:24:26;;;;;;;5.37;2.67;;;19.60;99.90;;;;;;5042130;28;20519;-52
2023/08/26 00:26:52;;;;;;;2.20;2.00;;;19.60;99.90;;;;;;5038843;28;20496;-53
2023/08/26 00:29:19;;;;;;;2.00;1.90;;;19.60;99.90;;;;;;5046207;28;20992;-52
2023/08/26 00:31:45;;;;;;;2.77;2.27;;;19.60;99.90;;;;;;5038780;28;20518;-52
2023/08/26 00:34:12;;;;;;;2.33;1.67;;;19.50;99.90;;;;;;5044987;28;20484;-52
2023/08/26 00:36:38;;;;;;;3.00;2.33;;;19.50;99.90;;;;;;5040113;28;20860;-53
2023/08/26 00:39:05;;;;;;;2.43;1.90;;;19.50;99.90;;;;;;5044059;28;20516;-53
2023/08/26 00:41:33;;;;;;;2.80;2.40;;;19.40;99.90;;;;;;5044342;28;20522;-53
2023/08/26 00:44:00;;;;;;;4.27;2.40;;;19.40;99.90;;;;;;5039915;28;20467;-53
2023/08/26 00:46:27;;;;;;;2.50;2.17;;;19.40;99.90;;;;;;5044778;28;20453;-53
2023/08/26 00:48:53;;;;;;;2.93;1.90;;;19.50;99.90;;;;;;5040685;28;21057;-53
2023/08/26 00:51:20;;;;;;;2.47;1.87;;;19.40;99.90;;;;;;5047686;28;20517;-53
2023/08/26 00:53:47;;;;;;;3.37;2.20;;;19.50;99.90;;;;;;5044067;28;20466;-53
2023/08/26 00:56:14;;;;;;;2.20;1.83;;;19.50;99.90;;;;;;5044737;28;20493;-59
2023/08/26 00:58:42;;;;;;;2.10;1.90;;;19.50;99.90;;;;;;5040082;28;20516;-53
2023/08/26 01:01:09;;;;;;;3.00;2.03;;;19.40;99.90;;;;;;5048446;28;20490;-53
2023/08/26 01:03:36;;;;;;;10.90;2.37;;;19.40;99.90;;;;;;5041307;28;20497;-52
2023/08/26 01:06:03;;;;;;;2.10;1.93;;;19.40;99.90;;;;;;5045811;28;21037;-52
2023/08/26 01:08:30;;;;;;;4.10;2.60;;;19.40;99.90;;;;;;5038156;28;20474;-53
2023/08/26 01:11:06;;;;;;;2.93;2.47;;;19.30;99.90;;;;;;5042270;28;20568;-52
2023/08/26 01:13:39;;;;;;;1.73;1.63;;;19.30;99.90;;;;;;5050076;28;20489;-52
2023/08/26 01:16:09;;;;;;;3.63;2.20;;;19.30;99.90;;;;;;5046812;28;20496;-52
2023/08/26 01:18:36;;;;;;;3.30;2.53;;;19.30;99.90;;;;;;5037137;28;20454;-52
2023/08/26 01:21:03;;;;;;;5.07;2.20;;;19.20;99.90;;;;;;5048381;28;21070;-52
2023/08/26 01:23:37;;;;;;;2.97;2.47;;;19.20;99.90;;;;;;5043932;28;20589;-52
2023/08/26 01:26:03;;;;;;;3.30;2.07;;;19.10;99.90;;;;;;5053637;28;20893;-53
2023/08/26 01:28:30;;;;;;;4.10;2.13;;;19.20;99.90;;;;;;5049757;28;20522;-51
2023/08/26 01:31:00;;;;;;;3.43;1.93;;;19.10;99.90;;;;;;5054564;28;20489;-53
2023/08/26 01:33:33;;;;;;;5.33;2.57;;;19.10;99.90;;;;;;5054145;28;20532;-53
2023/08/26 01:36:04;;;;;;;10.63;1.93;;;19.10;99.90;;;;;;5053142;28;20541;-53
2023/08/26 01:38:30;;;;;;;5.20;2.63;;;19.10;99.90;;;;;;5049314;28;20489;-51
2023/08/26 01:41:01;;;;;;;4.97;2.90;;;19.10;99.90;;;;;;5043636;28;20604;-53
2023/08/26 01:43:27;;;;;;;2.53;2.33;;;19.10;99.90;;;;;;5040104;28;20544;-53
2023/08/26 01:45:54;;;;;;;3.60;2.43;;;19.10;99.90;;;;;;5046510;28;20990;-52
2023/08/26 01:48:21;;;;;;;7.23;2.07;;;19.10;99.90;;;;;;5042888;28;20568;-52
2023/08/26 01:50:47;;;;;;;2.60;2.07;;;19.10;99.90;;;;;;5045356;28;20568;-52
2023/08/26 01:53:14;;;;;;;3.43;2.00;;;19.10;99.90;;;;;;5051120;28;20489;-52
2023/08/26 01:55:40;;;;;;;3.60;2.27;;;19.10;99.90;;;;;;5047347;28;20463;-52
2023/08/26 01:58:08;;;;;;;3.90;1.67;;;19.10;99.90;;;;;;5044229;28;20550;-52
2023/08/26 02:00:35;;;;;;;12.30;2.30;;;19.10;99.90;;;;;;5049216;28;20577;-52
2023/08/26 02:03:01;;;;;;;7.50;2.00;;;19.10;99.90;;;;;;5047848;28;20541;-52
2023/08/26 02:05:28;;;;;;;6.17;2.40;;;19.10;99.90;;;;;;5051252;28;21017;-52
2023/08/26 02:07:54;;;;;;;4.93;2.27;;;19.10;99.90;;;;;;5051598;28;20462;-52
2023/08/26 02:10:21;;;;;;;5.60;2.43;;;19.20;99.90;;;;;;5038157;28;20775;-52
2023/08/26 02:12:47;;;;;;;5.40;2.60;;;19.10;99.90;;;;;;5042294;28;20485;-51
2023/08/26 02:15:15;;;;;;;3.30;1.70;;;19.20;99.90;;;;;;5049898;28;20553;-52
2023/08/26 02:17:42;;;;;;;3.83;2.23;;;19.20;99.90;;;;;;5036910;28;20462;-52
2023/08/26 02:20:09;;;;;;;4.77;2.30;;;19.20;99.90;;;;;;5047777;28;20569;-52
2023/08/26 02:22:35;;;;;;;2.73;2.30;;;19.20;99.90;;;;;;5046272;28;20469;-51
2023/08/26 02:25:03;;;;;;;4.47;2.43;;;19.20;99.90;;;;;;5049664;28;20912;-52
2023/08/26 02:27:29;;;;;;;5.07;2.93;;;19.20;99.90;;;;;;5047570;28;20516;-52
2023/08/26 02:29:56;;;;;;;3.83;2.23;;;19.20;99.90;;;;;;5052231;28;20924;-52
2023/08/26 02:32:24;;;;;;;2.17;2.07;;;19.10;99.90;;;;;;5039514;28;20972;-51
2023/08/26 02:34:50;;;;;;;3.53;1.87;;;19.10;99.90;;;;;;5043655;28;20556;-52
2023/08/26 02:37:17;;;;;;;3.53;2.03;;;19.10;99.90;;;;;;5040926;28;20566;-52
2023/08/26 02:39:44;;;;;;;3.30;2.30;;;19.10;99.90;;;;;;5037561;28;20546;-52
2023/08/26 02:42:10;;;;;;;10.10;2.87;;;19.10;99.90;;;;;;5049333;28;21086;-52
2023/08/26 02:44:37;;;;;;;4.63;2.57;;;19.10;99.90;;;;;;5045502;28;20552;-52
2023/08/26 02:47:03;;;;;;;2.67;2.47;;;19.00;99.90;;;;;;5044257;28;20462;-52
2023/08/26 02:49:31;;;;;;;2.00;1.80;;;19.00;99.90;;;;;;5034884;28;21106;-52
2023/08/26 02:51:58;;;;;;;2.40;2.20;;;19.00;99.90;;;;;;5042153;28;20577;-52
2023/08/26 02:54:25;;;;;;;8.40;2.53;;;19.00;99.90;;;;;;5042429;28;20557;-52
2023/08/26 02:56:52;;;;;;;6.00;2.40;;;19.00;99.90;;;;;;5044587;28;20520;-53
2023/08/26 02:59:18;;;;;;;5.60;2.70;;;19.00;99.90;;;;;;5042375;28;20466;-53
2023/08/26 03:01:45;;;;;;;2.60;2.00;;;19.00;99.90;;;;;;5039552;28;20578;-53
2023/08/26 03:04:11;;;;;;;5.33;2.20;;;19.00;99.90;;;;;;5045250;28;20461;-53
2023/08/26 03:06:39;;;;;;;2.67;2.47;;;19.00;99.90;;;;;;5049993;28;21055;-52
2023/08/26 03:09:06;;;;;;;4.37;2.10;;;19.00;99.90;;;;;;5044508;28;20511;-53
2023/08/26 03:11:33;;;;;;;3.77;2.23;;;19.00;99.90;;;;;;5039942;28;20757;-53
2023/08/26 03:13:59;;;;;;;3.50;2.37;;;19.00;99.90;;;;;;5044166;28;20501;-53
2023/08/26 03:16:26;;;;;;;2.70;2.50;;;18.90;99.90;;;;;;5041439;28;20482;-52
2023/08/26 03:18:53;;;;;;;2.77;2.57;;;19.00;99.90;;;;;;5036962;28;20451;-52
2023/08/26 03:21:19;;;;;;;5.83;2.40;;;19.00;99.90;;;;;;5047728;28;20478;-52
2023/08/26 03:23:47;;;;;;;3.47;2.23;;;19.00;99.90;;;;;;5045227;28;20490;-52
2023/08/26 03:26:13;;;;;;;2.73;2.27;;;19.00;99.90;;;;;;5043458;28;20588;-52
2023/08/26 03:28:40;;;;;;;3.00;2.00;;;19.00;99.90;;;;;;5044927;28;20549;-53
2023/08/26 03:31:07;;;;;;;3.20;2.30;;;19.00;99.90;;;;;;5036226;28;20572;-52
2023/08/26 03:33:34;;;;;;;2.90;2.63;;;19.00;99.90;;;;;;5043418;28;20900;-52
2023/08/26 03:36:03;;;;;;;2.23;2.03;;;19.00;99.90;;;;;;5045707;28;20548;-52
2023/08/26 03:38:30;;;;;;;6.20;2.43;;;19.00;99.90;;;;;;5047760;28;20465;-52
2023/08/26 03:40:57;;;;;;;3.47;3.00;;;19.00;99.90;;;;;;5047810;28;20893;-54
2023/08/26 03:43:24;;;;;;;2.50;2.37;;;19.00;99.90;;;;;;5038073;28;20492;-54
2023/08/26 03:45:50;;;;;;;3.13;2.17;;;19.00;99.90;;;;;;5047732;28;20520;-55
2023/08/26 03:48:17;;;;;;;5.73;2.53;;;19.00;99.90;;;;;;5035442;28;20552;-54
2023/08/26 03:50:50;;;;;;;5.20;2.30;;;19.00;99.90;;;;;;5045874;28;20936;-55
2023/08/26 03:53:17;;;;;;;3.70;2.33;;;19.00;99.90;;;;;;5035322;28;20536;-55
2023/08/26 03:55:44;;;;;;;3.27;3.00;;;19.00;99.90;;;;;;5035804;28;20869;-55
2023/08/26 03:58:12;;;;;;;3.77;3.00;;;19.00;99.90;;;;;;5040602;28;20544;-53
2023/08/26 04:00:39;;;;;;;2.90;2.30;;;19.00;99.90;;;;;;5045733;28;20473;-56
2023/08/26 04:03:06;;;;;;;2.47;2.27;;;19.00;99.90;;;;;;5044358;28;20515;-54
2023/08/26 04:05:32;;;;;;;4.00;2.67;;;18.90;99.90;;;;;;5043041;28;20785;-55
2023/08/26 04:07:59;;;;;;;3.13;2.83;;;18.90;99.90;;;;;;5041942;28;20493;-56
2023/08/26 04:10:25;;;;;;;3.53;3.20;;;18.90;99.90;;;;;;5046454;28;20576;-54
2023/08/26 04:12:52;;;;;;;4.80;2.73;;;19.00;99.90;;;;;;5041539;28;20473;-55
2023/08/26 04:15:20;;;;;;;6.50;2.90;;;19.00;99.90;;;;;;5042542;28;20443;-53
2023/08/26 04:17:46;;;;;;;5.60;2.80;;;19.00;99.90;;;;;;5046197;28;20552;-52
2023/08/26 04:20:13;;;;;;;7.70;2.83;;;19.00;99.90;;;;;;5038805;28;20922;-54
2023/08/26 04:22:40;;;;;;;3.07;2.70;;;19.00;99.90;;;;;;5034203;28;21004;-54
2023/08/26 04:25:07;;;;;;;3.03;2.47;;;19.00;99.90;;;;;;5046202;28;20979;-55
2023/08/26 04:27:34;;;;;;;2.43;2.33;;;19.00;99.90;;;;;;5046216;28;20466;-54
2023/08/26 04:30:00;;;;;;;3.80;2.43;;;19.00;99.90;;;;;;5046922;28;20518;-54
2023/08/26 04:32:28;;;;;;;3.80;2.60;;;19.00;99.90;;;;;;5049341;28;20991;-54
2023/08/26 04:34:55;;;;;;;4.23;2.73;;;19.00;99.90;;;;;;5042425;28;20472;-54
2023/08/26 04:37:22;;;;;;;2.33;2.13;;;19.00;99.90;;;;;;5046497;28;20549;-55
2023/08/26 04:39:49;;;;;;;2.20;2.00;;;19.00;99.90;;;;;;5044900;28;20493;-55
2023/08/26 04:42:16;;;;;;;5.73;2.70;;;19.10;99.90;;;;;;5045834;28;20549;-55
2023/08/26 04:44:42;;;;;;;7.73;2.37;;;19.10;99.90;;;;;;5046015;28;20609;-55
2023/08/26 04:47:09;;;;;;;3.90;2.53;;;19.10;99.90;;;;;;5046770;28;20548;-54
2023/08/26 04:49:36;;;;;;;6.63;2.23;;;19.10;99.90;;;;;;5041525;28;20571;-54
2023/08/26 04:52:03;;;;;;;2.83;2.63;;;19.10;99.90;;;;;;5049286;28;20673;-53
2023/08/26 04:54:30;;;;;;;3.37;2.90;;;19.10;99.90;;;;;;5039661;28;20458;-54
2023/08/26 04:56:57;;;;;;;4.33;3.10;;;19.20;99.90;;;;;;5038630;28;20497;-54
2023/08/26 04:59:23;;;;;;;2.77;2.10;;;19.20;99.90;;;;;;5048814;28;20537;-53
2023/08/26 05:01:50;;;;;;;3.03;2.43;;;19.20;99.90;;;;;;5041247;28;20573;-55
2023/08/26 05:04:16;;;;;;;6.33;2.90;;;19.20;99.90;;;;;;5049257;28;21041;-55
2023/08/26 05:06:44;;;;;;;6.90;3.07;;;19.30;99.90;;;;;;5043998;28;20458;-53
2023/08/26 05:09:11;;;;;;;3.67;2.60;;;19.20;99.90;;;;;;5043441;28;20538;-55
2023/08/26 05:11:38;;;;;;;3.90;2.50;;;19.30;99.90;;;;;;5053507;28;20974;-53
2023/08/26 05:14:04;;;;;;;6.70;2.20;;;19.30;99.90;;;;;;5042237;28;20461;-54
2023/08/26 05:16:31;;;;;;;9.80;3.73;;;19.30;99.90;;;;;;5037992;28;20478;-54
2023/08/26 05:18:57;;;;;;;4.17;3.00;;;19.30;99.90;;;;;;5047413;28;20552;-54
2023/08/26 05:21:24;;;;;;;4.57;2.70;;;19.30;99.90;;;;;;5042588;28;20493;-55
2023/08/26 05:23:52;;;;;;;4.70;3.03;;;19.40;99.90;;;;;;5051275;28;20469;-54
2023/08/26 05:26:18;;;;;;;3.13;2.60;;;19.40;99.90;;;;;;5052064;28;20462;-54
2023/08/26 05:28:45;;;;;;;2.70;2.50;;;19.40;99.90;;;;;;5042609;28;20529;-54
2023/08/26 05:31:12;;;;;;;6.43;3.03;;;19.40;99.90;;;;;;5042031;28;20572;-55
2023/08/26 05:33:38;;;;;;;5.90;3.50;;;19.40;99.90;;;;;;5048944;28;21007;-54
2023/08/26 05:36:05;;;;;;;3.10;2.90;;;19.40;99.90;;;;;;5042347;28;20474;-55
2023/08/26 05:38:32;;;;;;;4.90;2.90;;;19.40;99.90;;;;;;5040962;28;20546;-54
2023/08/26 05:41:00;;;;;;;4.90;3.07;;;19.40;99.90;;;;;;5042034;28;20524;-54
2023/08/26 05:43:29;;;;;;;5.10;2.77;;;19.40;99.90;;;;;;5049059;28;20548;-54
2023/08/26 05:45:56;;;;;;;3.93;3.47;;;19.40;99.90;;;;;;5047723;28;20889;-55
2023/08/26 05:48:23;;;;;;;3.30;2.67;;;19.40;99.90;;;;;;5050278;28;20853;-53
2023/08/26 05:50:49;;;;;;;5.30;3.13;;;19.50;99.90;;;;;;5040205;28;20598;-54
2023/08/26 05:53:16;;;;;;;5.23;3.30;;;19.50;99.90;;;;;;5050417;28;20548;-54
2023/08/26 05:55:43;;;;;;;7.30;4.07;;;19.50;99.90;;;;;;5038934;28;20498;-55
2023/08/26 05:58:11;;;;;;;5.83;4.03;;;19.50;99.90;;;;;;5051933;28;20492;-53
2023/08/26 06:00:38;;;;;;;6.87;3.37;;;19.50;99.90;;;;;;5041366;28;20979;-54
2023/08/26 06:03:04;;;;;;;5.83;3.87;;;19.50;99.90;;;;;;5049051;28;20894;-54
2023/08/26 06:05:31;;;;;;;6.47;3.97;;;19.50;99.90;;;;;;5040186;28;20497;-54
2023/08/26 06:07:58;;;;;;;6.63;4.20;;;19.40;99.90;;;;;;5046091;28;20557;-54
2023/08/26 06:10:24;;;;;;;3.63;3.13;;;19.50;99.90;;;;;;5051921;28;20514;-55
2023/08/26 06:12:51;;;;;;;6.60;4.10;;;19.50;99.90;;;;;;5051253;28;20520;-54
2023/08/26 06:15:18;;;;;;;4.77;3.90;;;19.60;99.90;;;;;;5050275;28;21035;-54
2023/08/26 06:17:45;;;;;;;6.00;4.57;;;19.60;99.90;;;;;;5043856;28;21142;-55
2023/08/26 06:20:12;;;;;;;5.80;5.20;;;19.60;99.90;;;;;;5040656;28;20524;-55
2023/08/26 06:22:39;;;;;;;5.77;5.17;;;19.60;99.90;;;;;;5047820;28;20467;-55
2023/08/26 06:25:06;;;;;;;7.97;5.03;;;19.70;99.90;;;;;;5038035;28;20461;-55
2023/08/26 06:27:33;;;;;;;9.23;4.97;;;19.70;99.90;;;;;;5047213;28;20537;-55
2023/08/26 06:30:03;;;;;;;6.67;5.37;;;19.70;99.90;;;;;;5040884;28;21051;-55
2023/08/26 06:32:31;;;;;;;6.57;5.07;;;19.70;99.90;;;;;;5042381;28;20570;-54
2023/08/26 06:34:57;;;;;;;7.80;5.10;;;19.70;99.90;;;;;;5046820;28;20498;-55
2023/08/26 06:37:24;;;;;;;6.73;5.60;;;19.70;99.90;;;;;;5043248;28;20549;-54
2023/08/26 06:39:50;;;;;;;6.87;5.40;;;19.70;99.90;;;;;;5047232;28;20569;-56
2023/08/26 06:42:17;;;;;;;7.43;5.10;;;19.70;99.90;;;;;;5045857;28;20552;-55
2023/08/26 06:44:43;;;;;;;8.30;5.10;;;19.70;99.90;;;;;;5041036;28;20544;-54
2023/08/26 06:47:10;;;;;;;7.43;6.20;;;19.60;99.90;;;;;;5050060;28;20497;-55
2023/08/26 06:49:38;;;;;;;6.13;4.87;;;19.60;99.90;;;;;;5047713;28;20546;-54
2023/08/26 06:52:05;;;;;;;6.10;5.50;;;19.70;99.90;;;;;;5051379;28;20497;-55
2023/08/26 06:54:34;;;;;;;6.10;5.50;;;19.60;99.90;;;;;;5042699;28;20516;-54
2023/08/26 06:57:01;;;;;;;6.17;5.63;;;19.60;99.90;;;;;;5044192;28;20544;-53
2023/08/26 06:59:27;;;;;;;8.60;5.80;;;19.70;99.90;;;;;;5046782;28;20493;-55
2023/08/26 07:01:54;;;;;;;6.37;5.70;;;19.70;99.90;;;;;;5047379;28;20562;-56
2023/08/26 07:04:20;;;;;;;9.97;5.40;;;19.60;99.90;;;;;;5046480;28;20548;-53
2023/08/26 07:06:50;;;;;;;9.23;5.87;;;19.60;99.90;;;;;;5042299;28;20956;-55
2023/08/26 07:09:16;;;;;;;9.17;5.40;;;19.60;99.90;;;;;;5050938;28;20449;-54
2023/08/26 07:11:43;;;;;;;5.10;4.60;;;19.60;99.90;;;;;;5044527;28;20506;-54
2023/08/26 07:14:09;;;;;;;7.93;4.90;;;19.60;99.90;;;;;;5030565;28;20478;-54
2023/08/26 07:16:36;;;;;;;5.83;5.27;;;19.60;99.90;;;;;;5043316;28;20462;-55
2023/08/26 07:19:03;;;;;;;7.00;5.20;;;19.60;99.90;;;;;;5043017;28;20586;-55
2023/08/26 07:21:29;;;;;;;5.57;5.03;;;19.60;99.90;;;;;;5038301;28;20473;-55
2023/08/26 07:23:57;;;;;;;10.13;5.87;;;19.60;99.90;;;;;;5050697;28;20548;-55
2023/08/26 07:26:24;;;;;;;5.60;5.10;;;19.60;99.90;;;;;;5044230;28;20490;-54
2023/08/26 07:28:51;;;;;;;6.40;5.80;;;19.60;99.90;;;;;;5042811;28;20549;-52
2023/08/26 07:31:18;;;;;;;5.83;5.33;;;19.60;99.90;;;;;;5042806;28;20563;-55
2023/08/26 07:33:44;;;;;;;6.97;5.73;;;19.70;99.90;;;;;;5038633;28;20505;-53
2023/08/26 07:36:11;;;;;;;8.50;5.47;;;19.70;99.90;;;;;;5048155;28;20508;-52
2023/08/26 07:38:38;;;;;;;5.97;5.40;;;19.70;99.90;;;;;;5043098;28;20462;-52
2023/08/26 07:41:06;;;;;;;5.60;5.10;;;19.80;99.90;;;;;;5050454;28;20569;-51
2023/08/26 07:43:33;;;;;;;6.03;5.20;;;19.80;99.90;;;;;;5035885;28;20462;-52
2023/08/26 07:46:00;;;;;;;6.63;5.40;;;19.80;99.90;;;;;;5040106;28;20936;-52
2023/08/26 07:48:27;;;;;;;6.57;5.50;;;19.90;99.90;;;;;;5034351;28;20550;-52
2023/08/26 07:50:53;;;;;;;9.30;5.63;;;20.00;99.90;;;;;;5048179;28;20582;-52
2023/08/26 07:53:20;;;;;;;6.67;5.23;;;20.10;99.90;;;;;;5049737;28;21010;-53
2023/08/26 07:55:46;;;;;;;10.70;4.83;;;20.10;99.90;;;;;;5049165;28;20872;-53
2023/08/26 07:58:14;;;;;;;4.87;4.40;;;20.20;99.90;;;;;;5039876;28;20549;-51
2023/08/26 08:00:41;;;;;;;4.57;3.97;;;20.30;99.90;;;;;;5044069;28;20567;-51
2023/08/26 08:03:07;;;;;;;5.70;4.13;;;20.30;1.40;;;;;;5044865;28;20543;-52
2023/08/26 08:05:34;;;;;;;6.80;4.30;;;20.30;99.90;;;;;;5035080;28;20488;-52
2023/08/26 08:08:00;;;;;;;5.47;4.10;;;20.30;99.90;;;;;;5046147;28;20494;-52
2023/08/26 08:10:27;;;;;;;7.37;4.27;;;20.40;99.90;;;;;;5044081;28;20577;-53
2023/08/26 08:12:53;;;;;;;7.93;4.40;;;20.40;99.90;;;;;;5049774;28;20519;-52
2023/08/26 08:15:21;;;;;;;5.80;4.47;;;20.40;99.90;;;;;;5039524;28;20537;-52
2023/08/26 08:17:48;;;;;;;4.43;4.10;;;20.50;99.90;;;;;;5038172;28;20512;-52
2023/08/26 08:20:15;;;;;;;5.90;4.50;;;20.60;99.90;;;;;;5039482;28;20563;-52
2023/08/26 08:22:43;;;;;;;9.80;5.20;;;20.60;99.90;;;;;;5045982;28;20566;-52
2023/08/26 08:25:10;;;;;;;5.27;4.77;;;20.70;99.90;;;;;;5052074;28;20861;-51
2023/08/26 08:27:38;;;;;;;6.20;4.80;;;20.80;99.90;;;;;;5047183;28;20558;-51
2023/08/26 08:30:06;;;;;;;6.07;4.87;;;20.80;99.90;;;;;;5048078;28;20588;-51
2023/08/26 08:32:34;;;;;;;5.80;4.40;;;20.80;99.90;;;;;;5044571;28;20832;-51
2023/08/26 08:35:02;;;;;;;4.60;4.30;;;21.00;99.90;;;;;;5044613;28;20500;-51
2023/08/26 08:37:28;;;;;;;5.43;4.90;;;21.00;99.90;;;;;;5043149;28;20545;-51
2023/08/26 08:39:55;;;;;;;4.50;4.10;;;21.10;99.90;;;;;;5048168;28;20599;-51
2023/08/26 08:42:23;;;;;;;4.83;4.33;;;21.20;99.90;;;;;;5050067;28;20482;-52
2023/08/26 08:44:49;;;;;;;7.50;4.60;;;21.20;99.90;;;;;;5045118;28;20569;-51
2023/08/26 08:47:17;;;;;;;6.17;4.60;;;21.30;99.90;;;;;;5051169;28;20469;-51
2023/08/26 08:49:44;;;;;;;4.27;3.20;;;21.30;99.90;;;;;;5050223;28;20893;-52
2023/08/26 08:52:12;;;;;;;5.40;3.97;;;21.20;99.90;;;;;;5047896;28;20564;-51
2023/08/26 08:54:39;;;;;;;3.50;3.20;;;21.10;21.00;;;;;;5037912;28;20467;-52
2023/08/26 08:57:10;;;;;;;5.07;3.90;;;21.10;96.80;;;;;;5047120;28;20454;-51
2023/08/26 08:59:37;;;;;;;6.83;3.80;;;21.10;99.90;;;;;;5049691;28;20482;-51
2023/08/26 09:02:05;;;;;;;6.43;3.90;;;21.20;99.90;;;;;;5040486;28;20501;-50
2023/08/26 09:04:32;;;;;;;4.97;4.20;;;21.40;99.90;;;;;;5044404;28;21079;-51
2023/08/26 09:07:03;;;;;;;5.17;4.17;;;21.60;93.80;;;;;;5045381;28;20461;-51
2023/08/26 09:09:29;;;;;;;6.10;3.63;;;21.60;99.90;;;;;;5049847;28;20486;-51
2023/08/26 09:11:56;;;;;;;4.23;3.93;;;21.60;23.80;;;;;;5045381;28;20482;-52
2023/08/26 09:14:23;;;;;;;6.23;5.17;;;21.60;20.30;;;;;;5047380;28;20544;-51
2023/08/26 09:16:49;;;;;;;7.07;5.20;;;21.60;27.10;;;;;;5044443;28;20462;-51
2023/08/26 09:19:16;;;;;;;10.27;5.20;;;21.80;29.90;;;;;;5048961;28;20531;-52
2023/08/26 09:21:42;;;;;;;6.97;4.70;;;21.90;31.60;;;;;;5044410;28;20473;-51
2023/08/26 09:24:13;;;;;;;10.13;6.30;;;21.90;27.80;;;;;;5044133;28;20493;-51
2023/08/26 09:26:40;;;;;;;9.37;7.57;;;22.10;30.30;;;;;;5046638;28;20465;-51
2023/08/26 09:29:12;;;;;;;8.27;7.30;;;22.10;37.90;;;;;;5048773;28;20457;-51
2023/08/26 09:31:46;;;;;;;18.93;9.77;;;22.20;40.40;;;;;;5044773;28;20596;-52
2023/08/26 09:34:12;;;;;;;12.20;8.93;;;22.20;52.70;;;;;;5042584;28;20470;-52
2023/08/26 09:36:40;;;;;;;10.47;8.90;;;22.30;51.00;;;;;;5043206;28;20554;-52
2023/08/26 09:39:14;;;;;;;16.93;8.80;;;22.50;53.40;;;;;;5045314;28;20465;-51
2023/08/26 09:41:43;;;;;;;16.30;8.90;;;22.70;61.20;;;;;;5046346;28;20565;-51
2023/08/26 09:44:10;;;;;;;10.80;8.00;;;22.80;63.30;;;;;;5050072;28;20461;-52
2023/08/26 09:46:39;;;;;;;11.43;8.37;;;22.70;60.60;;;;;;5041977;28;20551;-52
2023/08/26 09:49:05;;;;;;;16.53;8.67;;;22.60;63.80;;;;;;5049404;28;20557;-52
2023/08/26 09:51:33;;;;;;;8.60;7.70;;;22.40;62.30;;;;;;5048712;28;20593;-51
2023/08/26 09:54:00;;;;;;;9.57;8.13;;;22.40;54.80;;;;;;5048058;28;20485;-52
2023/08/26 09:56:28;;;;;;;10.83;7.93;;;22.40;52.20;;;;;;5044104;28;20468;-52
2023/08/26 09:58:56;;;;;;;10.60;8.17;;;22.40;58.40;;;;;;5041405;28;21072;-51
2023/08/26 10:01:24;;;;;;;15.30;7.87;;;22.50;59.60;;;;;;5040694;28;20612;-52
2023/08/26 10:03:53;;;;;;;14.53;7.90;;;22.60;57.50;;;;;;5040884;28;20565;-51
2023/08/26 10:06:24;;;;;;;11.63;8.10;;;22.70;67.20;;;;;;5050930;28;20516;-52
2023/08/26 10:08:55;;;;;;;13.67;8.33;;;23.00;75.90;;;;;;5049168;28;20537;-53
2023/08/26 10:11:22;;;;;;;10.93;7.70;;;23.10;76.50;;;;;;5045336;28;20501;-52
2023/08/26 10:13:54;;;;;;;14.00;7.70;;;23.60;89.20;;;;;;5045354;28;20531;-51
2023/08/26 10:16:23;;;;;;;15.90;6.90;;;24.40;99.90;;;;;;5041038;28;20974;-52
2023/08/26 10:18:54;;;;;;;15.07;8.27;;;25.90;99.90;;;;;;5051137;28;20462;-52
2023/08/26 10:21:21;;;;;;;11.80;8.20;;;26.60;99.90;;;;;;5050870;28;20552;-53
2023/08/26 10:23:48;;;;;;;12.63;7.30;;;26.50;62.30;;;;;;5050060;28;20540;-52
2023/08/26 10:26:16;;;;;;;10.87;6.50;;;26.70;72.10;;;;;;5045942;28;20491;-52
2023/08/26 10:28:44;;;;;;;11.23;7.57;;;26.50;66.30;;;;;;5047191;28;20502;-51
2023/08/26 10:31:14;;;;;;;9.07;8.00;;;26.40;70.20;;;;;;5042871;28;20572;-53
2023/08/26 10:34:01;;;;;;;11.00;7.60;;;25.80;57.00;;;;;;5038906;28;20486;-52
2023/08/26 10:36:28;;;;;;;10.63;8.17;;;25.40;39.90;;;;;;5046766;28;20515;-51
2023/08/26 10:38:56;;;;;;;11.73;8.47;;;25.00;32.50;;;;;;5041083;28;20545;-51
2023/08/26 10:41:23;;;;;;;11.47;8.47;;;24.70;99.90;;;;;;5038810;28;20474;-53
2023/08/26 10:43:53;;;;;;;10.60;7.73;;;24.80;24.50;;;;;;5044807;28;20970;-51
2023/08/26 10:46:33;;;;;;;11.90;8.33;;;24.70;99.90;;;;;;5046102;28;20492;-52
2023/08/26 10:49:00;;;;;;;21.00;16.80;;;24.40;99.90;;;;;;5048100;28;20823;-51
2023/08/26 10:51:27;;;;;;;14.93;8.57;;;24.10;99.90;;;;;;5045488;28;20489;-51
2023/08/26 10:54:02;;;;;;;15.80;8.47;;;23.90;99.90;;;;;;5042100;28;20545;-52
2023/08/26 10:56:32;;;;;;;11.90;9.10;;;23.50;99.90;;;;;;5044342;28;20453;-53
2023/08/26 10:59:02;;;;;;;27.10;11.30;;;23.40;99.90;;;;;;5047574;28;21133;-52
2023/08/26 11:01:33;;;;;;;11.87;8.17;;;23.30;99.90;;;;;;5048149;28;20565;-53
2023/08/26 11:04:00;;;;;;;20.60;8.40;;;23.40;99.90;;;;;;5048156;28;20469;-52
2023/08/26 11:06:28;;;;;;;18.13;8.40;;;23.50;99.90;;;;;;5041874;28;20465;-51
2023/08/26 11:08:55;;;;;;;8.53;7.33;;;23.60;99.90;;;;;;5045275;28;20489;-50
2023/08/26 11:11:22;;;;;;;11.73;7.40;;;24.10;99.90;;;;;;5050518;28;20517;-53
2023/08/26 11:13:49;;;;;;;11.50;8.70;;;24.60;99.90;;;;;;5042482;28;21043;-52
2023/08/26 11:16:16;;;;;;;9.93;6.97;;;24.80;34.30;;;;;;5036909;28;20554;-52
2023/08/26 11:18:44;;;;;;;6.97;6.30;;;25.10;45.40;;;;;;5039158;28;20482;-52
2023/08/26 11:21:11;;;;;;;8.07;6.10;;;25.80;64.50;;;;;;5050584;28;20531;-51
2023/08/26 11:23:39;;;;;;;8.73;5.90;;;26.30;84.80;;;;;;5046831;28;20549;-52
2023/08/26 11:26:07;;;;;;;9.33;6.40;;;25.90;94.10;;;;;;5047015;28;20453;-52
2023/08/26 11:28:33;;;;;;;10.07;5.60;;;25.40;91.70;;;;;;5037842;28;20787;-51
2023/08/26 11:31:01;;;;;;;9.60;6.27;;;25.10;82.00;;;;;;5042858;28;20582;-52
2023/08/26 11:33:28;;;;;;;9.63;6.07;;;24.60;79.10;;;;;;5042658;28;20541;-51
2023/08/26 11:35:56;;;;;;;10.20;6.30;;;24.50;67.30;;;;;;5042987;28;20549;-51
2023/08/26 11:38:24;;;;;;;6.80;5.43;;;24.20;63.60;;;;;;5040602;28;20482;-52
2023/08/26 11:40:50;;;;;;;11.97;6.27;;;24.10;60.10;;;;;;5049526;28;20497;-53
2023/08/26 11:43:17;;;;;;;9.93;5.60;;;24.00;60.60;;;;;;5049574;28;20526;-53
2023/08/26 11:45:47;;;;;;;8.63;5.90;;;23.80;53.90;;;;;;5039545;28;20541;-53
2023/08/26 11:48:14;;;;;;;6.67;5.63;;;23.70;42.20;;;;;;5043513;28;20438;-53
2023/08/26 11:50:42;;;;;;;14.73;7.50;;;23.40;99.90;;;;;;5048055;28;20535;-52
2023/08/26 11:53:10;;;;;;;9.53;6.77;;;22.80;99.90;;;;;;5041096;28;20518;-53
2023/08/26 11:55:37;;;;;;;9.47;5.90;;;22.30;99.90;;;;;;5045126;28;20561;-51
2023/08/26 11:58:04;;;;;;;7.40;5.23;;;22.00;99.90;;;;;;5049843;28;20890;-52
2023/08/26 12:00:33;;;;;;;12.60;5.60;;;21.90;99.90;;;;;;5044792;28;20532;-51
2023/08/26 12:03:03;;;;;;;11.00;6.10;;;22.20;94.30;;;;;;5046570;28;20481;-51
2023/08/26 12:05:41;;;;;;;7.10;5.60;;;22.50;99.90;;;;;;5038361;28;20485;-52
2023/08/26 12:08:15;;;;;;;6.70;4.77;;;23.00;99.90;;;;;;5039242;28;20453;-51
2023/08/26 12:10:42;;;;;;;13.27;5.53;;;23.40;99.90;;;;;;5036051;28;20482;-52
2023/08/26 12:13:09;;;;;;;11.27;5.37;;;23.70;99.90;;;;;;5046727;28;20612;-52
2023/08/26 12:15:40;;;;;;;19.23;5.97;;;24.10;99.90;;;;;;5043133;28;20922;-53
2023/08/26 12:18:06;;;;;;;9.03;5.50;;;24.40;99.90;;;;;;5044329;28;20458;-52
2023/08/26 12:20:33;;;;;;;7.53;5.43;;;24.40;28.10;;;;;;5043131;28;20524;-51
2023/08/26 12:23:01;;;;;;;8.50;4.73;;;24.80;39.40;;;;;;5048315;28;20463;-51
2023/08/26 12:25:31;;;;;;;6.97;4.70;;;24.50;67.20;;;;;;5042131;28;20561;-54
2023/08/26 12:28:06;;;;;;;5.60;3.83;;;24.70;68.80;;;;;;5043947;28;20469;-52
2023/08/26 12:30:33;;;;;;;9.13;4.80;;;24.60;74.90;;;;;;5049341;28;22421;-53
2023/08/26 12:32:59;;;;;;;9.37;5.10;;;24.70;78.00;;;;;;5041937;28;20485;-52
2023/08/26 12:35:26;;;;;;;6.67;3.90;;;24.70;87.10;;;;;;5048854;28;20967;-52
2023/08/26 12:37:53;;;;;;;4.83;3.70;;;24.80;94.20;;;;;;5050450;28;20523;-52
2023/08/26 12:40:19;;;;;;;7.77;3.93;;;25.30;93.90;;;;;;5040820;28;20590;-52
2023/08/26 12:42:47;;;;;;;10.27;3.40;;;26.00;99.90;;;;;;5048290;28;20494;-53
2023/08/26 12:45:14;;;;;;;6.70;2.87;;;26.90;99.90;;;;;;5040150;28;20545;-53
2023/08/26 12:47:40;;;;;;;18.40;3.80;;;27.30;99.90;;;;;;5038843;28;21020;-52